Main page
METAR-TAF:

METAR-TAF

Airports :

Henderson Field

Midway, United States

latitude: 28-13N, longitude: 177-22W, elevation: 4 m

Current weather observation

The report was made 51 minutes ago, at 22:56 UTC
Wind 11 kt from the Northeast
Temperature 24°C
Humidity 83%
Pressure 1018 hPa
Visibility: 14.5 km
Overcast at a height of 3700 ft

METAR: PMDY 012256Z AUTO 04011KT 9SM OVC037 24/21 A3007 RMK AO2 SLP181 T02440206

Time: 13:47 (23:47 UTC)

Forecast

The report was made 4 hours and 34 minutes ago, at 19:13 UTC
Forecast valid from 01 at 19 UTC to 02 at 18 UTC
Wind 3 kt from variable directions
Visibility: 10 km
Scattered clouds at a height of 1500 ft
Broken clouds at a height of 2500 ft
showers in vicinity
From 02 at 0600 UTC
Wind 6 kt from the Northeast
Visibility: 10 km
Scattered clouds at a height of 2500 ft
Broken clouds at a height of 4000 ft

TAF: PMDY 011913Z 0119/0218 VRB03KT P6SM VCSH SCT015 BKN025 FM020600 04006KT P6SM SCT025 BKN040 AMD NOT SKED

Weather observations and forecasts of more than 4000 airports (METAR and TAF reports).

The available stations are represented by yellow and red dots on the map.

Hover mouse over dot to see the name of the station.

Then click to see weather observations and forecasts.

To change the map : click on the green buttons with a black cross to zoom in, on the green button with a dash to zoom out, or on the green arrows for adjacent maps.


METAR-TAF: